sensor_id;sensor_type;location;lat;lon;timestamp;pressure;altitude;pressure_sealevel;temperature;humidity
13015;BME280;6573;57.696;11.950;2023-04-01T00:01:10;100591.41;;;3.78;100.00
13015;BME280;6573;57.696;11.950;2023-04-01T00:03:40;100595.59;;;4.15;100.00
13015;BME280;6573;57.696;11.950;2023-04-01T00:06:13;100588.75;;;4.18;100.00
13015;BME280;6573;57.696;11.950;2023-04-01T00:08:42;100597.66;;;3.87;100.00
13015;BME280;6573;57.696;11.950;2023-04-01T00:11:11;100600.44;;;3.95;100.00
13015;BME280;6573;57.696;11.950;2023-04-01T00:13:41;100605.53;;;3.90;100.00
13015;BME280;6573;57.696;11.950;2023-04-01T00:16:11;100597.66;;;3.87;100.00
13015;BME280;6573;57.696;11.950;2023-04-01T00:18:49;100597.34;;;3.72;100.00
13015;BME280;6573;57.696;11.950;2023-04-01T00:21:18;100601.94;;;3.84;100.00
13015;BME280;6573;57.696;11.950;2023-04-01T00:23:47;100603.66;;;3.83;100.00
13015;BME280;6573;57.696;11.950;2023-04-01T00:26:15;100610.63;;;3.84;100.00
13015;BME280;6573;57.696;11.950;2023-04-01T00:28:47;100613.25;;;3.84;100.00
13015;BME280;6573;57.696;11.950;2023-04-01T00:31:16;100613.59;;;4.03;100.00
13015;BME280;6573;57.696;11.950;2023-04-01T00:33:44;100630.47;;;3.79;100.00
13015;BME280;6573;57.696;11.950;2023-04-01T00:36:14;100623.09;;;3.60;100.00
13015;BME280;6573;57.696;11.950;2023-04-01T00:38:44;100635.19;;;3.58;100.00
13015;BME280;6573;57.696;11.950;2023-04-01T00:41:14;100645.03;;;3.73;100.00
13015;BME280;6573;57.696;11.950;2023-04-01T00:43:45;100646.94;;;3.80;100.00
13015;BME280;6573;57.696;11.950;2023-04-01T00:46:15;100657.53;;;3.50;100.00
13015;BME280;6573;57.696;11.950;2023-04-01T00:48:47;100659.09;;;3.42;100.00
13015;BME280;6573;57.696;11.950;2023-04-01T00:51:20;100653.03;;;3.43;100.00
13015;BME280;6573;57.696;11.950;2023-04-01T00:53:51;100673.13;;;3.50;100.00
13015;BME280;6573;57.696;11.950;2023-04-01T00:56:22;100665.16;;;3.43;100.00
13015;BME280;6573;57.696;11.950;2023-04-01T00:58:58;100668.00;;;3.53;100.00
13015;BME280;6573;57.696;11.950;2023-04-01T01:01:30;100672.88;;;3.04;100.00
13015;BME280;6573;57.696;11.950;2023-04-01T01:03:58;100675.31;;;2.98;100.00
13015;BME280;6573;57.696;11.950;2023-04-01T01:06:39;100669.81;;;2.86;100.00
13015;BME280;6573;57.696;11.950;2023-04-01T01:09:23;100684.78;;;2.94;100.00
13015;BME280;6573;57.696;11.950;2023-04-01T01:12:00;100681.53;;;3.37;100.00
13015;BME280;6573;57.696;11.950;2023-04-01T01:14:41;100693.50;;;2.98;100.00
13015;BME280;6573;57.696;11.950;2023-04-01T01:17:21;100686.00;;;2.76;100.00
13015;BME280;6573;57.696;11.950;2023-04-01T01:23:42;100693.00;;;2.78;100.00
13015;BME280;6573;57.696;11.950;2023-04-01T01:26:40;100705.72;;;2.68;100.00
13015;BME280;6573;57.696;11.950;2023-04-01T01:29:22;100703.72;;;2.90;100.00
13015;BME280;6573;57.696;11.950;2023-04-01T01:32:03;100696.84;;;2.59;100.00
13015;BME280;6573;57.696;11.950;2023-04-01T01:34:38;100710.22;;;2.75;100.00
13015;BME280;6573;57.696;11.950;2023-04-01T01:37:11;100719.09;;;2.51;100.00
13015;BME280;6573;57.696;11.950;2023-04-01T01:39:42;100704.88;;;2.69;100.00
13015;BME280;6573;57.696;11.950;2023-04-01T01:42:14;100721.13;;;2.61;100.00
13015;BME280;6573;57.696;11.950;2023-04-01T01:44:45;100716.94;;;2.67;100.00
13015;BME280;6573;57.696;11.950;2023-04-01T01:47:15;100718.16;;;2.18;100.00
13015;BME280;6573;57.696;11.950;2023-04-01T01:49:45;100726.41;;;2.05;100.00
13015;BME280;6573;57.696;11.950;2023-04-01T01:52:16;100718.16;;;2.18;100.00
13015;BME280;6573;57.696;11.950;2023-04-01T01:54:48;100719.19;;;2.23;100.00
13015;BME280;6573;57.696;11.950;2023-04-01T01:57:21;100721.38;;;2.41;100.00
13015;BME280;6573;57.696;11.950;2023-04-01T01:59:52;100723.25;;;2.15;100.00
13015;BME280;6573;57.696;11.950;2023-04-01T02:02:23;100717.97;;;2.12;100.00
13015;BME280;6573;57.696;11.950;2023-04-01T02:04:53;100724.84;;;2.10;100.00
13015;BME280;6573;57.696;11.950;2023-04-01T02:07:28;100726.31;;;2.02;100.00
13015;BME280;6573;57.696;11.950;2023-04-01T02:09:59;100734.75;;;1.95;100.00
13015;BME280;6573;57.696;11.950;2023-04-01T02:12:28;100738.72;;;2.12;100.00
13015;BME280;6573;57.696;11.950;2023-04-01T02:15:01;100734.13;;;2.04;100.00
13015;BME280;6573;57.696;11.950;2023-04-01T02:17:33;100738.53;;;2.06;100.00
13015;BME280;6573;57.696;11.950;2023-04-01T02:20:07;100732.94;;;2.21;100.00
13015;BME280;6573;57.696;11.950;2023-04-01T02:22:40;100733.13;;;2.28;100.00
13015;BME280;6573;57.696;11.950;2023-04-01T02:25:12;100739.72;;;2.45;100.00
13015;BME280;6573;57.696;11.950;2023-04-01T02:27:43;100735.66;;;2.25;100.00
13015;BME280;6573;57.696;11.950;2023-04-01T02:30:12;100742.16;;;2.11;100.00
13015;BME280;6573;57.696;11.950;2023-04-01T02:32:42;100760.59;;;2.20;100.00
13015;BME280;6573;57.696;11.950;2023-04-01T02:35:13;100736.91;;;2.08;100.00
13015;BME280;6573;57.696;11.950;2023-04-01T02:37:45;100751.16;;;2.22;100.00
13015;BME280;6573;57.696;11.950;2023-04-01T02:40:16;100752.97;;;2.26;100.00
13015;BME280;6573;57.696;11.950;2023-04-01T02:42:44;100761.09;;;2.37;100.00
13015;BME280;6573;57.696;11.950;2023-04-01T02:45:13;100764.22;;;1.97;100.00
13015;BME280;6573;57.696;11.950;2023-04-01T02:47:42;100758.38;;;1.76;100.00
13015;BME280;6573;57.696;11.950;2023-04-01T02:50:10;100765.63;;;1.86;100.00
13015;BME280;6573;57.696;11.950;2023-04-01T02:52:38;100767.94;;;2.05;100.00
13015;BME280;6573;57.696;11.950;2023-04-01T02:55:09;100769.66;;;2.06;100.00
13015;BME280;6573;57.696;11.950;2023-04-01T02:57:37;100777.16;;;1.95;100.00
13015;BME280;6573;57.696;11.950;2023-04-01T03:00:06;100782.88;;;2.14;100.00
13015;BME280;6573;57.696;11.950;2023-04-01T03:02:38;100792.72;;;1.95;100.00
13015;BME280;6573;57.696;11.950;2023-04-01T03:05:07;100783.94;;;1.92;100.00
13015;BME280;6573;57.696;11.950;2023-04-01T03:07:35;100788.69;;;2.05;100.00
13015;BME280;6573;57.696;11.950;2023-04-01T03:10:04;100782.91;;;1.87;100.00
13015;BME280;6573;57.696;11.950;2023-04-01T03:12:34;100788.84;;;2.11;100.00
13015;BME280;6573;57.696;11.950;2023-04-01T03:15:03;100801.81;;;1.83;100.00
13015;BME280;6573;57.696;11.950;2023-04-01T03:17:37;100800.63;;;2.00;100.00
13015;BME280;6573;57.696;11.950;2023-04-01T03:20:07;100798.47;;;1.87;100.00
13015;BME280;6573;57.696;11.950;2023-04-01T03:22:37;100800.16;;;1.85;100.00
13015;BME280;6573;57.696;11.950;2023-04-01T03:25:09;100809.25;;;1.72;100.00
13015;BME280;6573;57.696;11.950;2023-04-01T03:27:39;100805.63;;;1.94;100.00
13015;BME280;6573;57.696;11.950;2023-04-01T03:30:08;100814.25;;;1.93;100.00
13015;BME280;6573;57.696;11.950;2023-04-01T03:32:37;100809.13;;;1.96;100.00
13015;BME280;6573;57.696;11.950;2023-04-01T03:35:06;100810.63;;;1.88;100.00
13015;BME280;6573;57.696;11.950;2023-04-01T03:37:36;100822.84;;;1.92;100.00
13015;BME280;6573;57.696;11.950;2023-04-01T03:40:05;100805.91;;;1.76;100.00
13015;BME280;6573;57.696;11.950;2023-04-01T03:42:34;100824.22;;;1.81;100.00
13015;BME280;6573;57.696;11.950;2023-04-01T03:45:05;100824.66;;;1.68;100.00
13015;BME280;6573;57.696;11.950;2023-04-01T03:47:34;100833.84;;;1.85;100.00
13015;BME280;6573;57.696;11.950;2023-04-01T03:50:02;100836.34;;;1.82;100.00
13015;BME280;6573;57.696;11.950;2023-04-01T03:52:31;100846.44;;;1.73;100.00
13015;BME280;6573;57.696;11.950;2023-04-01T03:54:59;100835.53;;;1.83;100.00
13015;BME280;6573;57.696;11.950;2023-04-01T03:57:30;100836.06;;;1.73;100.00
13015;BME280;6573;57.696;11.950;2023-04-01T03:59:58;100833.91;;;1.86;100.00
13015;BME280;6573;57.696;11.950;2023-04-01T04:02:28;100833.56;;;1.76;100.00
13015;BME280;6573;57.696;11.950;2023-04-01T04:04:56;100837.34;;;1.85;100.00
13015;BME280;6573;57.696;11.950;2023-04-01T04:07:25;100853.28;;;1.71;100.00
13015;BME280;6573;57.696;11.950;2023-04-01T04:09:53;100809.13;;;1.43;100.00
13015;BME280;6573;57.696;11.950;2023-04-01T04:12:23;100842.66;;;1.63;100.00
13015;BME280;6573;57.696;11.950;2023-04-01T04:14:51;100859.03;;;1.62;100.00
13015;BME280;6573;57.696;11.950;2023-04-01T04:17:19;100853.69;;;1.58;100.00
13015;BME280;6573;57.696;11.950;2023-04-01T04:19:49;100846.03;;;1.61;100.00
13015;BME280;6573;57.696;11.950;2023-04-01T04:22:17;100861.97;;;1.22;100.00
13015;BME280;6573;57.696;11.950;2023-04-01T04:24:46;100864.69;;;1.51;100.00
13015;BME280;6573;57.696;11.950;2023-04-01T04:27:15;100865.72;;;1.30;100.00
13015;BME280;6573;57.696;11.950;2023-04-01T04:29:43;100856.78;;;1.22;100.00
13015;BME280;6573;57.696;11.950;2023-04-01T04:32:11;100853.25;;;1.20;100.00
13015;BME280;6573;57.696;11.950;2023-04-01T04:34:40;100877.94;;;1.35;100.00
13015;BME280;6573;57.696;11.950;2023-04-01T04:37:10;100877.81;;;1.31;100.00
13015;BME280;6573;57.696;11.950;2023-04-01T04:39:38;100880.25;;;1.51;100.00
13015;BME280;6573;57.696;11.950;2023-04-01T04:42:06;100888.00;;;1.25;100.00
13015;BME280;6573;57.696;11.950;2023-04-01T04:44:35;100885.78;;;1.12;100.00
13015;BME280;6573;57.696;11.950;2023-04-01T04:47:03;100895.56;;;1.45;100.00
13015;BME280;6573;57.696;11.950;2023-04-01T04:49:31;100899.53;;;1.59;100.00
13015;BME280;6573;57.696;11.950;2023-04-01T04:52:00;100899.09;;;1.47;100.00
13015;BME280;6573;57.696;11.950;2023-04-01T04:54:29;100912.47;;;1.34;100.00
13015;BME280;6573;57.696;11.950;2023-04-01T04:56:58;100903.41;;;1.22;100.00
13015;BME280;6573;57.696;11.950;2023-04-01T04:59:26;100904.69;;;1.34;100.00
13015;BME280;6573;57.696;11.950;2023-04-01T05:01:55;100911.84;;;1.17;100.00
13015;BME280;6573;57.696;11.950;2023-04-01T05:04:23;100909.03;;;1.35;100.00
13015;BME280;6573;57.696;11.950;2023-04-01T05:06:52;100915.22;;;1.14;100.00
13015;BME280;6573;57.696;11.950;2023-04-01T05:09:20;100916.03;;;1.61;100.00
13015;BME280;6573;57.696;11.950;2023-04-01T05:11:50;100918.63;;;1.37;100.00
13015;BME280;6573;57.696;11.950;2023-04-01T05:14:18;100858.34;;;0.94;100.00
13015;BME280;6573;57.696;11.950;2023-04-01T05:16:47;100918.66;;;1.13;100.00
13015;BME280;6573;57.696;11.950;2023-04-01T05:19:16;100937.16;;;1.48;100.00
13015;BME280;6573;57.696;11.950;2023-04-01T05:21:44;100944.31;;;1.55;100.00
13015;BME280;6573;57.696;11.950;2023-04-01T05:24:12;100934.72;;;1.76;100.00
13015;BME280;6573;57.696;11.950;2023-04-01T05:26:41;100940.69;;;1.50;100.00
13015;BME280;6573;57.696;11.950;2023-04-01T05:29:10;100950.63;;;1.38;100.00
13015;BME280;6573;57.696;11.950;2023-04-01T05:31:39;100947.53;;;1.48;100.00
13015;BME280;6573;57.696;11.950;2023-04-01T05:34:07;100959.19;;;1.37;100.00
13015;BME280;6573;57.696;11.950;2023-04-01T05:36:35;100954.69;;;1.55;100.00
13015;BME280;6573;57.696;11.950;2023-04-01T05:39:03;100962.97;;;1.45;100.00
13015;BME280;6573;57.696;11.950;2023-04-01T05:41:34;100963.72;;;1.66;100.00
13015;BME280;6573;57.696;11.950;2023-04-01T05:44:03;100977.31;;;1.59;100.00
13015;BME280;6573;57.696;11.950;2023-04-01T05:46:33;100964.25;;;1.56;100.00
13015;BME280;6573;57.696;11.950;2023-04-01T05:49:02;100978.16;;;1.59;100.00
13015;BME280;6573;57.696;11.950;2023-04-01T05:51:30;100978.88;;;1.54;100.00
13015;BME280;6573;57.696;11.950;2023-04-01T05:53:58;100971.78;;;1.50;100.00
13015;BME280;6573;57.696;11.950;2023-04-01T05:56:26;100973.22;;;1.65;100.00
13015;BME280;6573;57.696;11.950;2023-04-01T05:58:55;100947.03;;;1.58;100.00
13015;BME280;6573;57.696;11.950;2023-04-01T06:01:23;100983.13;;;1.77;100.00
13015;BME280;6573;57.696;11.950;2023-04-01T06:03:55;100965.91;;;1.79;100.00
13015;BME280;6573;57.696;11.950;2023-04-01T06:06:26;100993.00;;;2.12;100.00
13015;BME280;6573;57.696;11.950;2023-04-01T06:08:57;100988.47;;;2.07;100.00
13015;BME280;6573;57.696;11.950;2023-04-01T06:11:34;100996.06;;;2.26;100.00
13015;BME280;6573;57.696;11.950;2023-04-01T06:14:11;100997.03;;;2.29;100.00
13015;BME280;6573;57.696;11.950;2023-04-01T06:16:56;100993.63;;;2.30;100.00
13015;BME280;6573;57.696;11.950;2023-04-01T06:19:36;101000.09;;;2.43;100.00
13015;BME280;6573;57.696;11.950;2023-04-01T06:22:35;101003.69;;;2.21;100.00
13015;BME280;6573;57.696;11.950;2023-04-01T06:25:22;101013.97;;;2.18;100.00
13015;BME280;6573;57.696;11.950;2023-04-01T06:28:01;101013.88;;;2.15;100.00
13015;BME280;6573;57.696;11.950;2023-04-01T06:30:41;101009.78;;;2.48;100.00
13015;BME280;6573;57.696;11.950;2023-04-01T06:33:35;101012.88;;;2.37;100.00
13015;BME280;6573;57.696;11.950;2023-04-01T06:36:36;101018.31;;;2.44;100.00
13015;BME280;6573;57.696;11.950;2023-04-01T06:39:25;101020.38;;;2.54;100.00
13015;BME280;6573;57.696;11.950;2023-04-01T06:42:28;101026.16;;;2.73;100.00
13015;BME280;6573;57.696;11.950;2023-04-01T06:45:07;101003.13;;;2.56;100.00
13015;BME280;6573;57.696;11.950;2023-04-01T06:47:46;101028.13;;;2.53;100.00
13015;BME280;6573;57.696;11.950;2023-04-01T06:50:24;101025.16;;;2.96;100.00
13015;BME280;6573;57.696;11.950;2023-04-01T06:53:02;101026.66;;;2.88;100.00
13015;BME280;6573;57.696;11.950;2023-04-01T06:55:37;101039.00;;;2.95;100.00
13015;BME280;6573;57.696;11.950;2023-04-01T06:58:16;101030.25;;;2.93;100.00
13015;BME280;6573;57.696;11.950;2023-04-01T07:00:49;101032.41;;;3.06;100.00
13015;BME280;6573;57.696;11.950;2023-04-01T07:03:21;101038.53;;;3.36;100.00
13015;BME280;6573;57.696;11.950;2023-04-01T07:05:51;101038.25;;;3.27;100.00
13015;BME280;6573;57.696;11.950;2023-04-01T07:08:23;101045.56;;;3.40;100.00
13015;BME280;6573;57.696;11.950;2023-04-01T07:10:55;101042.66;;;3.30;100.00
13015;BME280;6573;57.696;11.950;2023-04-01T07:13:28;101043.91;;;3.42;100.00
13015;BME280;6573;57.696;11.950;2023-04-01T07:16:05;101048.00;;;3.64;100.00
13015;BME280;6573;57.696;11.950;2023-04-01T07:18:40;101055.13;;;3.69;100.00
13015;BME280;6573;57.696;11.950;2023-04-01T07:21:23;101055.63;;;3.87;100.00
13015;BME280;6573;57.696;11.950;2023-04-01T07:23:59;101053.78;;;3.54;100.00
13015;BME280;6573;57.696;11.950;2023-04-01T07:26:30;101064.19;;;3.83;100.00
13015;BME280;6573;57.696;11.950;2023-04-01T07:28:59;101067.94;;;3.94;100.00
13015;BME280;6573;57.696;11.950;2023-04-01T07:31:46;101062.44;;;4.14;100.00
13015;BME280;6573;57.696;11.950;2023-04-01T07:34:23;101081.47;;;3.81;100.00
13015;BME280;6573;57.696;11.950;2023-04-01T07:36:59;101089.03;;;4.04;100.00
13015;BME280;6573;57.696;11.950;2023-04-01T07:39:38;101092.09;;;4.20;100.00
13015;BME280;6573;57.696;11.950;2023-04-01T07:42:16;101089.28;;;4.13;100.00
13015;BME280;6573;57.696;11.950;2023-04-01T07:44:53;101087.34;;;4.06;100.00
13015;BME280;6573;57.696;11.950;2023-04-01T07:47:35;101095.31;;;4.43;100.00
13015;BME280;6573;57.696;11.950;2023-04-01T07:50:16;101085.50;;;4.67;100.00
13015;BME280;6573;57.696;11.950;2023-04-01T07:52:54;101091.06;;;4.14;100.00
13015;BME280;6573;57.696;11.950;2023-04-01T07:55:30;101092.03;;;4.50;100.00
13015;BME280;6573;57.696;11.950;2023-04-01T07:58:07;101049.97;;;4.35;99.82
13015;BME280;6573;57.696;11.950;2023-04-01T08:00:43;101102.34;;;4.47;99.66
13015;BME280;6573;57.696;11.950;2023-04-01T08:03:31;101101.06;;;4.64;98.62
13015;BME280;6573;57.696;11.950;2023-04-01T08:06:05;101093.31;;;4.33;97.72
13015;BME280;6573;57.696;11.950;2023-04-01T08:08:46;101069.53;;;3.89;96.44
13015;BME280;6573;57.696;11.950;2023-04-01T08:11:31;101112.13;;;4.23;95.36
13015;BME280;6573;57.696;11.950;2023-04-01T08:14:09;101110.03;;;4.41;94.38
13015;BME280;6573;57.696;11.950;2023-04-01T08:16:46;101079.78;;;4.46;94.41
13015;BME280;6573;57.696;11.950;2023-04-01T08:19:21;101113.16;;;4.96;94.58
13015;BME280;6573;57.696;11.950;2023-04-01T08:21:58;101111.16;;;5.20;94.14
13015;BME280;6573;57.696;11.950;2023-04-01T08:24:35;101118.28;;;5.28;92.82
13015;BME280;6573;57.696;11.950;2023-04-01T08:27:18;101099.16;;;4.91;93.65
13015;BME280;6573;57.696;11.950;2023-04-01T08:29:53;101100.00;;;4.90;92.85
13015;BME280;6573;57.696;11.950;2023-04-01T08:32:28;101120.31;;;4.69;92.79
13015;BME280;6573;57.696;11.950;2023-04-01T08:35:08;101120.94;;;4.93;92.57
13015;BME280;6573;57.696;11.950;2023-04-01T08:37:39;101114.25;;;5.04;92.63
13015;BME280;6573;57.696;11.950;2023-04-01T08:43:33;101116.88;;;5.42;92.31
13015;BME280;6573;57.696;11.950;2023-04-01T08:46:17;101135.47;;;5.94;89.88
13015;BME280;6573;57.696;11.950;2023-04-01T08:49:05;101095.78;;;6.13;88.97
13015;BME280;6573;57.696;11.950;2023-04-01T08:52:15;101120.81;;;7.50;87.92
13015;BME280;6573;57.696;11.950;2023-04-01T08:54:57;101127.78;;;7.48;83.68
13015;BME280;6573;57.696;11.950;2023-04-01T08:57:37;101118.50;;;7.13;83.92
13015;BME280;6573;57.696;11.950;2023-04-01T09:00:23;101130.94;;;6.75;81.53
13015;BME280;6573;57.696;11.950;2023-04-01T09:06:12;101128.19;;;6.68;81.91
13015;BME280;6573;57.696;11.950;2023-04-01T09:08:57;101124.50;;;6.57;82.24
13015;BME280;6573;57.696;11.950;2023-04-01T09:11:38;101121.06;;;7.10;82.76
13015;BME280;6573;57.696;11.950;2023-04-01T09:14:40;101137.03;;;6.76;80.54
13015;BME280;6573;57.696;11.950;2023-04-01T09:17:34;101133.09;;;6.99;81.88
13015;BME280;6573;57.696;11.950;2023-04-01T09:20:30;101133.94;;;6.98;79.03
13015;BME280;6573;57.696;11.950;2023-04-01T09:23:21;101129.25;;;6.79;80.40
13015;BME280;6573;57.696;11.950;2023-04-01T09:26:06;101130.97;;;6.77;80.13
13015;BME280;6573;57.696;11.950;2023-04-01T09:28:42;101121.41;;;7.33;79.91
13015;BME280;6573;57.696;11.950;2023-04-01T09:31:25;101122.50;;;6.91;80.06
13015;BME280;6573;57.696;11.950;2023-04-01T09:36:55;101143.94;;;6.71;79.36
13015;BME280;6573;57.696;11.950;2023-04-01T09:39:36;101136.16;;;6.75;78.68
13015;BME280;6573;57.696;11.950;2023-04-01T09:42:25;101138.53;;;6.62;79.25
13015;BME280;6573;57.696;11.950;2023-04-01T09:45:01;101137.44;;;6.97;79.88
13015;BME280;6573;57.696;11.950;2023-04-01T09:47:49;101132.41;;;7.09;78.81
13015;BME280;6573;57.696;11.950;2023-04-01T09:50:32;101099.03;;;6.96;78.04
13015;BME280;6573;57.696;11.950;2023-04-01T09:53:11;101127.34;;;7.21;77.87
13015;BME280;6573;57.696;11.950;2023-04-01T09:56:17;101139.28;;;7.04;77.11
13015;BME280;6573;57.696;11.950;2023-04-01T10:05:54;101148.78;;;7.54;78.53
13015;BME280;6573;57.696;11.950;2023-04-01T10:08:58;101140.09;;;7.55;77.77
13015;BME280;6573;57.696;11.950;2023-04-01T10:15:13;101148.78;;;7.53;78.25
13015;BME280;6573;57.696;11.950;2023-04-01T10:18:12;101143.75;;;7.69;78.67
13015;BME280;6573;57.696;11.950;2023-04-01T10:24:11;101152.97;;;7.42;78.89
13015;BME280;6573;57.696;11.950;2023-04-01T10:27:10;101148.59;;;7.39;80.71
13015;BME280;6573;57.696;11.950;2023-04-01T10:30:05;101149.72;;;7.59;79.91
13015;BME280;6573;57.696;11.950;2023-04-01T10:33:08;101147.16;;;7.62;80.06
13015;BME280;6573;57.696;11.950;2023-04-01T10:36:31;101147.47;;;7.83;79.13
13015;BME280;6573;57.696;11.950;2023-04-01T10:39:32;101153.66;;;7.92;80.04
13015;BME280;6573;57.696;11.950;2023-04-01T10:42:32;101150.13;;;7.87;80.21
13015;BME280;6573;57.696;11.950;2023-04-01T10:45:33;101168.34;;;7.77;79.67
13015;BME280;6573;57.696;11.950;2023-04-01T10:48:21;101165.38;;;8.18;79.65
13015;BME280;6573;57.696;11.950;2023-04-01T10:51:04;101151.47;;;8.23;80.01
13015;BME280;6573;57.696;11.950;2023-04-01T10:53:49;101164.88;;;7.81;79.70
13015;BME280;6573;57.696;11.950;2023-04-01T10:56:39;101167.72;;;7.97;80.00
13015;BME280;6573;57.696;11.950;2023-04-01T11:09:27;101173.91;;;8.02;81.32
13015;BME280;6573;57.696;11.950;2023-04-01T11:15:54;101177.91;;;8.40;81.70
13015;BME280;6573;57.696;11.950;2023-04-01T11:22:13;101180.53;;;8.38;82.44
13015;BME280;6573;57.696;11.950;2023-04-01T11:24:57;101178.53;;;8.22;82.27
13015;BME280;6573;57.696;11.950;2023-04-01T11:30:55;101184.47;;;8.08;83.50
13015;BME280;6573;57.696;11.950;2023-04-01T11:33:31;101193.13;;;8.01;84.32
13015;BME280;6573;57.696;11.950;2023-04-01T11:36:20;101183.72;;;8.18;84.02
13015;BME280;6573;57.696;11.950;2023-04-01T11:39:08;101189.94;;;8.26;84.30
13015;BME280;6573;57.696;11.950;2023-04-01T11:41:44;101192.91;;;8.50;84.48
13015;BME280;6573;57.696;11.950;2023-04-01T11:44:18;101186.97;;;8.69;84.22
13015;BME280;6573;57.696;11.950;2023-04-01T11:46:59;101183.28;;;8.52;84.53
13015;BME280;6573;57.696;11.950;2023-04-01T11:49:40;101186.88;;;8.60;85.19
13015;BME280;6573;57.696;11.950;2023-04-01T11:52:26;101171.13;;;8.57;85.05
13015;BME280;6573;57.696;11.950;2023-04-01T11:55:12;101174.91;;;8.86;84.68
13015;BME280;6573;57.696;11.950;2023-04-01T11:58:05;101188.91;;;8.88;83.51
13015;BME280;6573;57.696;11.950;2023-04-01T12:03:46;101196.00;;;8.95;82.30
13015;BME280;6573;57.696;11.950;2023-04-01T12:06:23;101113.50;;;8.65;83.11
13015;BME280;6573;57.696;11.950;2023-04-01T12:09:04;101201.47;;;9.20;83.00
13015;BME280;6573;57.696;11.950;2023-04-01T12:11:44;101159.13;;;8.80;80.20
13015;BME280;6573;57.696;11.950;2023-04-01T12:14:24;101211.91;;;9.13;77.47
13015;BME280;6573;57.696;11.950;2023-04-01T12:17:04;101192.06;;;9.44;76.71
13015;BME280;6573;57.696;11.950;2023-04-01T12:19:42;101196.44;;;9.44;79.13
13015;BME280;6573;57.696;11.950;2023-04-01T12:22:28;101201.72;;;9.47;79.42
13015;BME280;6573;57.696;11.950;2023-04-01T12:25:07;101204.91;;;9.16;80.65
13015;BME280;6573;57.696;11.950;2023-04-01T12:27:58;101198.72;;;9.03;81.07
13015;BME280;6573;57.696;11.950;2023-04-01T12:30:42;101227.63;;;9.10;78.02
13015;BME280;6573;57.696;11.950;2023-04-01T12:33:40;101236.41;;;9.16;72.77
13015;BME280;6573;57.696;11.950;2023-04-01T12:36:28;101238.34;;;9.32;64.26
13015;BME280;6573;57.696;11.950;2023-04-01T12:39:15;101225.22;;;9.32;61.75
13015;BME280;6573;57.696;11.950;2023-04-01T12:41:52;101238.44;;;9.44;63.73
13015;BME280;6573;57.696;11.950;2023-04-01T12:44:45;101227.75;;;9.23;61.63
13015;BME280;6573;57.696;11.950;2023-04-01T12:47:33;101224.25;;;9.24;61.04
13015;BME280;6573;57.696;11.950;2023-04-01T12:50:28;101248.28;;;9.70;61.20
13015;BME280;6573;57.696;11.950;2023-04-01T12:53:14;101243.59;;;9.32;59.44
13015;BME280;6573;57.696;11.950;2023-04-01T12:55:45;101245.22;;;9.21;61.57
13015;BME280;6573;57.696;11.950;2023-04-01T12:58:56;101251.56;;;9.44;59.25
13015;BME280;6573;57.696;11.950;2023-04-01T13:04:48;101266.63;;;9.66;58.97
13015;BME280;6573;57.696;11.950;2023-04-01T13:07:31;101278.81;;;9.58;60.10
13015;BME280;6573;57.696;11.950;2023-04-01T13:10:08;101266.53;;;9.54;59.74
13015;BME280;6573;57.696;11.950;2023-04-01T13:13:00;101263.06;;;9.58;61.26
13015;BME280;6573;57.696;11.950;2023-04-01T13:15:41;101268.34;;;9.61;60.14
13015;BME280;6573;57.696;11.950;2023-04-01T13:18:21;101261.44;;;9.72;60.18
13015;BME280;6573;57.696;11.950;2023-04-01T13:21:05;101290.09;;;9.48;59.24
13015;BME280;6573;57.696;11.950;2023-04-01T13:23:46;101265.66;;;9.52;59.62
13015;BME280;6573;57.696;11.950;2023-04-01T13:26:22;101273.34;;;9.34;60.01
13015;BME280;6573;57.696;11.950;2023-04-01T13:28:59;101277.22;;;9.72;60.99
13015;BME280;6573;57.696;11.950;2023-04-01T13:31:53;101277.25;;;9.81;60.55
13015;BME280;6573;57.696;11.950;2023-04-01T13:34:32;101277.22;;;9.78;61.21
13015;BME280;6573;57.696;11.950;2023-04-01T13:37:15;101289.22;;;9.46;61.98
13015;BME280;6573;57.696;11.950;2023-04-01T13:39:55;101281.56;;;9.73;61.87
13015;BME280;6573;57.696;11.950;2023-04-01T13:42:27;101285.81;;;9.56;62.13
13015;BME280;6573;57.696;11.950;2023-04-01T13:45:09;101295.44;;;9.52;62.80
13015;BME280;6573;57.696;11.950;2023-04-01T13:48:17;101317.53;;;9.80;62.25
13015;BME280;6573;57.696;11.950;2023-04-01T13:51:05;101297.72;;;9.21;62.25
13015;BME280;6573;57.696;11.950;2023-04-01T13:53:59;101297.78;;;9.27;62.46
13015;BME280;6573;57.696;11.950;2023-04-01T13:56:34;101315.09;;;9.09;62.42
13015;BME280;6573;57.696;11.950;2023-04-01T13:59:31;101316.75;;;9.01;62.47
13015;BME280;6573;57.696;11.950;2023-04-01T14:02:18;101287.25;;;9.24;62.43
13015;BME280;6573;57.696;11.950;2023-04-01T14:05:02;101304.94;;;9.40;62.55
13015;BME280;6573;57.696;11.950;2023-04-01T14:07:50;101299.88;;;9.61;63.12
13015;BME280;6573;57.696;11.950;2023-04-01T14:10:30;101275.06;;;9.29;62.69
13015;BME280;6573;57.696;11.950;2023-04-01T14:13:07;101317.22;;;9.44;62.96
13015;BME280;6573;57.696;11.950;2023-04-01T14:15:51;101317.19;;;9.41;62.71
13015;BME280;6573;57.696;11.950;2023-04-01T14:18:45;101308.25;;;9.24;62.42
13015;BME280;6573;57.696;11.950;2023-04-01T14:21:23;101316.03;;;9.16;62.89
13015;BME280;6573;57.696;11.950;2023-04-01T14:24:07;101330.34;;;9.42;63.71
13015;BME280;6573;57.696;11.950;2023-04-01T14:29:52;101301.00;;;9.01;65.39
13015;BME280;6573;57.696;11.950;2023-04-01T14:32:34;101338.63;;;9.02;65.68
13015;BME280;6573;57.696;11.950;2023-04-01T14:35:22;101341.34;;;9.09;65.51
13015;BME280;6573;57.696;11.950;2023-04-01T14:40:56;101343.22;;;9.20;65.66
13015;BME280;6573;57.696;11.950;2023-04-01T14:43:40;101348.03;;;9.63;65.34
13015;BME280;6573;57.696;11.950;2023-04-01T14:49:35;101354.22;;;9.66;65.61
13015;BME280;6573;57.696;11.950;2023-04-01T14:52:09;101354.00;;;9.47;66.73